Time,TemperatureF,DewpointF,PressureIn,WindDirection,WindDirectionDegrees,WindSpeedMPH,WindSpeedGustMPH,Humidity,HourlyPrecipIn,Conditions,Clouds,dailyrainin,SoftwareType,DateUTC
2013-09-20 00:02:00,41.4,22.1,30.02,South,191,0.0,0.0,46,0.00,,---,0.00,VWS V14.01,2013-09-20 06:02:00,
2013-09-20 00:07:00,41.5,23.3,30.02,SW,214,0.0,0.0,48,0.00,,---,0.00,VWS V14.01,2013-09-20 06:07:00,
2013-09-20 00:12:00,41.5,23.3,30.02,SW,214,0.0,0.0,48,0.00,,---,0.00,VWS V14.01,2013-09-20 06:12:00,
2013-09-20 00:17:00,41.4,23.2,30.02,SW,214,0.0,0.0,48,0.00,,---,0.00,VWS V14.01,2013-09-20 06:17:00,
2013-09-20 00:22:00,41.2,23.0,30.02,SW,214,0.0,0.0,48,0.00,,---,0.00,VWS V14.01,2013-09-20 06:22:00,
2013-09-20 00:26:00,41.0,22.8,30.02,SW,214,0.0,0.0,48,0.00,,---,0.00,VWS V14.01,2013-09-20 06:26:00,
2013-09-20 00:31:00,41.0,22.8,30.02,SW,214,0.0,0.0,48,0.00,,---,0.00,VWS V14.01,2013-09-20 06:31:00,
2013-09-20 00:37:00,41.4,23.6,29.99,SW,214,0.0,0.0,49,0.00,,---,0.00,VWS V14.01,2013-09-20 06:37:00,
2013-09-20 00:41:00,41.5,23.8,29.99,SW,234,0.0,0.0,49,0.00,,---,0.00,VWS V14.01,2013-09-20 06:41:00,
2013-09-20 00:46:00,41.5,23.8,29.99,SW,234,0.0,0.0,49,0.00,,---,0.00,VWS V14.01,2013-09-20 06:46:00,
2013-09-20 00:51:00,41.4,23.6,29.99,SW,234,0.0,0.0,49,0.00,,---,0.00,VWS V14.01,2013-09-20 06:51:00,
2013-09-20 00:56:00,41.2,23.5,29.99,SW,234,0.0,0.0,49,0.00,,---,0.00,VWS V14.01,2013-09-20 06:56:00,
2013-09-20 01:01:00,41.0,23.3,29.99,SW,234,0.0,0.0,49,0.00,,---,0.00,VWS V14.01,2013-09-20 07:01:00,
2013-09-20 01:06:00,40.5,22.8,29.99,SW,234,0.0,0.0,49,0.00,,---,0.00,VWS V14.01,2013-09-20 07:06:00,
2013-09-20 01:11:00,40.1,22.5,29.99,SW,234,0.0,0.0,49,0.00,,---,0.00,VWS V14.01,2013-09-20 07:11:00,
2013-09-20 01:16:00,39.9,22.8,29.99,SW,234,0.0,0.0,50,0.00,,---,0.00,VWS V14.01,2013-09-20 07:16:00,
2013-09-20 01:21:00,40.1,23.0,29.99,SW,234,0.0,0.0,50,0.00,,---,0.00,VWS V14.01,2013-09-20 07:21:00,
2013-09-20 01:26:00,39.9,22.8,29.99,SW,234,0.0,0.0,50,0.00,,---,0.00,VWS V14.01,2013-09-20 07:26:00,
2013-09-20 01:31:00,39.7,22.6,29.99,SW,234,0.0,0.0,50,0.00,,---,0.00,VWS V14.01,2013-09-20 07:31:00,
2013-09-20 01:36:00,39.6,22.5,29.99,SW,234,0.0,0.0,50,0.00,,---,0.00,VWS V14.01,2013-09-20 07:36:00,
2013-09-20 01:41:00,39.7,22.6,29.99,SW,234,0.0,0.0,50,0.00,,---,0.00,VWS V14.01,2013-09-20 07:41:00,
2013-09-20 01:46:00,39.6,22.5,29.99,SW,234,0.0,0.0,50,0.00,,---,0.00,VWS V14.01,2013-09-20 07:46:00,
2013-09-20 01:51:00,39.4,22.8,29.99,SW,234,0.0,0.0,51,0.00,,---,0.00,VWS V14.01,2013-09-20 07:51:00,
2013-09-20 01:56:00,39.4,23.2,29.99,WSW,248,0.0,0.0,52,0.00,,---,0.00,VWS V14.01,2013-09-20 07:56:00,
2013-09-20 02:01:00,39.4,23.2,29.99,WSW,248,0.0,0.0,52,0.00,,---,0.00,VWS V14.01,2013-09-20 08:01:00,
2013-09-20 02:06:00,39.4,23.2,29.99,WSW,248,0.0,0.0,52,0.00,,---,0.00,VWS V14.01,2013-09-20 08:06:00,
2013-09-20 02:11:00,39.0,22.9,29.99,WSW,248,0.0,0.0,52,0.00,,---,0.00,VWS V14.01,2013-09-20 08:11:00,
2013-09-20 02:16:00,38.8,22.7,29.99,WSW,248,0.0,0.0,52,0.00,,---,0.00,VWS V14.01,2013-09-20 08:16:00,
2013-09-20 02:21:00,38.7,22.6,29.99,WSW,248,0.0,0.0,52,0.00,,---,0.00,VWS V14.01,2013-09-20 08:21:00,
2013-09-20 02:26:00,38.7,23.0,29.99,WSW,248,0.0,0.0,53,0.00,,---,0.00,VWS V14.01,2013-09-20 08:26:00,
2013-09-20 02:31:00,38.7,22.6,29.99,South,191,0.0,3.6,52,0.00,,---,0.00,VWS V14.01,2013-09-20 08:31:00,
2013-09-20 02:36:00,38.8,22.7,29.99,SSW,194,0.0,3.6,52,0.00,,---,0.00,VWS V14.01,2013-09-20 08:36:00,
2013-09-20 02:41:00,38.7,22.6,29.99,SSW,197,0.0,3.6,52,0.00,,---,0.00,VWS V14.01,2013-09-20 08:41:00,
2013-09-20 02:46:00,38.7,23.0,29.99,SSW,198,0.0,0.0,53,0.00,,---,0.00,VWS V14.01,2013-09-20 08:46:00,
2013-09-20 02:51:00,38.5,22.9,29.99,SSW,198,0.0,0.0,53,0.00,,---,0.00,VWS V14.01,2013-09-20 08:51:00,
2013-09-20 02:56:00,38.1,22.5,29.99,SSW,198,0.0,0.0,53,0.00,,---,0.00,VWS V14.01,2013-09-20 08:56:00,
2013-09-20 03:01:00,37.8,22.2,29.99,SSW,198,0.0,0.0,53,0.00,,---,0.00,VWS V14.01,2013-09-20 09:01:00,
2013-09-20 03:06:00,37.8,22.6,29.99,SW,220,0.0,0.0,54,0.00,,---,0.00,VWS V14.01,2013-09-20 09:06:00,
2013-09-20 03:11:00,37.8,22.6,29.99,SW,220,0.0,0.0,54,0.00,,---,0.00,VWS V14.01,2013-09-20 09:11:00,
2013-09-20 03:16:00,37.4,22.3,29.99,SW,220,0.0,0.0,54,0.00,,---,0.00,VWS V14.01,2013-09-20 09:16:00,
2013-09-20 03:21:00,37.0,22.0,29.99,SW,220,0.0,0.0,54,0.00,,---,0.00,VWS V14.01,2013-09-20 09:21:00,
2013-09-20 03:26:00,36.9,21.8,29.99,SW,220,0.0,0.0,54,0.00,,---,0.00,VWS V14.01,2013-09-20 09:26:00,
2013-09-20 03:31:00,36.9,21.8,29.99,SW,220,0.0,0.0,54,0.00,,---,0.00,VWS V14.01,2013-09-20 09:31:00,
2013-09-20 03:36:00,36.9,21.8,29.99,SW,220,0.0,0.0,54,0.00,,---,0.00,VWS V14.01,2013-09-20 09:36:00,
2013-09-20 03:41:00,36.9,22.2,29.99,SW,220,0.0,0.0,55,0.00,,---,0.00,VWS V14.01,2013-09-20 09:41:00,
2013-09-20 03:46:00,36.9,22.2,29.99,SW,227,0.0,0.0,55,0.00,,---,0.00,VWS V14.01,2013-09-20 09:46:00,
2013-09-20 03:51:00,37.2,23.0,29.99,SW,227,0.0,0.0,56,0.00,,---,0.00,VWS V14.01,2013-09-20 09:51:00,
2013-09-20 03:56:00,37.2,23.0,29.99,SW,227,0.0,0.0,56,0.00,,---,0.00,VWS V14.01,2013-09-20 09:56:00,
2013-09-20 04:01:00,37.0,22.8,29.99,SW,227,0.0,0.0,56,0.00,,---,0.00,VWS V14.01,2013-09-20 10:01:00,
2013-09-20 04:06:00,36.9,22.6,29.99,SW,227,0.0,0.0,56,0.00,,---,0.00,VWS V14.01,2013-09-20 10:06:00,
2013-09-20 04:11:00,36.9,22.2,29.99,SW,227,0.0,0.0,55,0.00,,---,0.00,VWS V14.01,2013-09-20 10:11:00,
2013-09-20 04:16:00,36.7,22.5,29.99,SW,227,0.0,0.0,56,0.00,,---,0.00,VWS V14.01,2013-09-20 10:16:00,
2013-09-20 04:21:00,36.3,21.7,29.99,SW,227,0.0,0.0,55,0.00,,---,0.00,VWS V14.01,2013-09-20 10:21:00,
2013-09-20 04:26:00,36.1,22.0,29.99,SW,227,0.0,0.0,56,0.00,,---,0.00,VWS V14.01,2013-09-20 10:26:00,
2013-09-20 04:31:00,36.1,22.4,29.99,SW,227,0.0,0.0,57,0.00,,---,0.00,VWS V14.01,2013-09-20 10:31:00,
2013-09-20 04:36:00,36.0,22.2,29.96,SW,227,0.0,0.0,57,0.00,,---,0.00,VWS V14.01,2013-09-20 10:36:00,
2013-09-20 04:41:00,35.8,22.0,29.96,SW,227,0.0,0.0,57,0.00,,---,0.00,VWS V14.01,2013-09-20 10:41:00,
2013-09-20 04:46:00,35.6,21.9,29.96,SW,227,0.0,0.0,57,0.00,,---,0.00,VWS V14.01,2013-09-20 10:46:00,
2013-09-20 04:51:00,35.6,21.9,29.96,SW,227,0.0,0.0,57,0.00,,---,0.00,VWS V14.01,2013-09-20 10:51:00,
2013-09-20 04:56:00,35.4,21.7,29.96,SW,227,0.0,0.0,57,0.00,,---,0.00,VWS V14.01,2013-09-20 10:56:00,
2013-09-20 05:01:00,35.4,22.1,29.96,SW,227,0.0,0.0,58,0.00,,---,0.00,VWS V14.01,2013-09-20 11:01:00,
2013-09-20 05:06:00,35.4,22.1,29.96,SW,227,0.0,0.0,58,0.00,,---,0.00,VWS V14.01,2013-09-20 11:06:00,
2013-09-20 05:11:00,35.6,22.7,29.96,SW,227,0.0,0.0,59,0.00,,---,0.00,VWS V14.01,2013-09-20 11:11:00,
2013-09-20 05:16:00,35.8,22.5,29.96,SW,227,0.0,0.0,58,0.00,,---,0.00,VWS V14.01,2013-09-20 11:16:00,
2013-09-20 05:21:00,35.6,22.3,29.96,SW,227,0.0,0.0,58,0.00,,---,0.00,VWS V14.01,2013-09-20 11:21:00,
2013-09-20 05:26:00,35.4,22.1,29.96,SE,137,0.0,0.0,58,0.00,,---,0.00,VWS V14.01,2013-09-20 11:26:00,
2013-09-20 05:31:00,35.1,21.8,29.96,SSE,149,0.0,0.0,58,0.00,,---,0.00,VWS V14.01,2013-09-20 11:31:00,
2013-09-20 05:36:00,35.1,21.8,29.96,SSE,149,0.0,0.0,58,0.00,,---,0.00,VWS V14.01,2013-09-20 11:36:00,
2013-09-20 05:41:00,34.7,21.9,29.96,SSE,149,0.0,0.0,59,0.00,,---,0.00,VWS V14.01,2013-09-20 11:41:00,
2013-09-20 05:46:00,34.7,22.2,29.96,SSE,149,0.0,0.0,60,0.00,,---,0.00,VWS V14.01,2013-09-20 11:46:00,
2013-09-20 05:51:00,35.1,22.6,29.96,SSE,149,0.0,0.0,60,0.00,,---,0.00,VWS V14.01,2013-09-20 11:51:00,
2013-09-20 05:56:00,34.7,21.9,29.96,SSE,149,0.0,0.0,59,0.00,,---,0.00,VWS V14.01,2013-09-20 11:56:00,
2013-09-20 06:01:00,34.5,21.7,29.96,SSE,149,0.0,0.0,59,0.00,,---,0.00,VWS V14.01,2013-09-20 12:01:00,
2013-09-20 06:06:00,34.5,21.7,29.96,SSE,149,0.0,0.0,59,0.00,,---,0.00,VWS V14.01,2013-09-20 12:06:00,
2013-09-20 06:11:00,34.5,21.7,29.96,SSE,153,0.0,0.0,59,0.00,,---,0.00,VWS V14.01,2013-09-20 12:11:00,
2013-09-20 06:16:00,34.5,21.7,29.96,SSE,153,0.0,0.0,59,0.00,,---,0.00,VWS V14.01,2013-09-20 12:16:00,
2013-09-20 06:21:00,34.9,22.8,29.96,WSW,244,0.0,0.0,61,0.00,,---,0.00,VWS V14.01,2013-09-20 12:21:00,
2013-09-20 06:26:00,34.9,22.8,29.96,WSW,247,0.0,0.0,61,0.00,,---,0.00,VWS V14.01,2013-09-20 12:26:00,
2013-09-20 06:31:00,34.9,22.8,29.96,South,190,2.2,2.2,61,0.00,,---,0.00,VWS V14.01,2013-09-20 12:31:00,
2013-09-20 06:36:00,35.1,23.0,29.96,SSW,208,0.0,2.2,61,0.00,,---,0.00,VWS V14.01,2013-09-20 12:36:00,
2013-09-20 06:41:00,35.1,23.0,29.96,SSW,208,0.0,2.2,61,0.00,,---,0.00,VWS V14.01,2013-09-20 12:41:00,
2013-09-20 06:46:00,34.9,22.8,29.96,SSW,208,0.0,0.0,61,0.00,,---,0.00,VWS V14.01,2013-09-20 12:46:00,
2013-09-20 06:51:00,34.5,22.5,29.96,SSW,208,0.0,0.0,61,0.00,,---,0.00,VWS V14.01,2013-09-20 12:51:00,
2013-09-20 06:56:00,34.5,22.5,29.96,SSW,208,0.0,0.0,61,0.00,,---,0.00,VWS V14.01,2013-09-20 12:56:00,
2013-09-20 07:01:00,34.7,22.6,29.96,SSW,208,0.0,0.0,61,0.00,,---,0.00,VWS V14.01,2013-09-20 13:01:00,
2013-09-20 07:06:00,34.9,22.8,29.96,SSW,208,0.0,0.0,61,0.00,,---,0.00,VWS V14.01,2013-09-20 13:06:00,
2013-09-20 07:11:00,34.9,23.2,29.96,SSW,208,0.0,0.0,62,0.00,,---,0.00,VWS V14.01,2013-09-20 13:11:00,
2013-09-20 07:16:00,34.9,23.2,29.96,WSW,243,0.0,0.0,62,0.00,,---,0.00,VWS V14.01,2013-09-20 13:16:00,
2013-09-20 07:21:00,34.9,23.2,29.96,West,260,0.0,0.0,62,0.00,,---,0.00,VWS V14.01,2013-09-20 13:21:00,
2013-09-20 07:26:00,34.9,23.6,29.96,West,260,0.0,0.0,63,0.00,,---,0.00,VWS V14.01,2013-09-20 13:26:00,
2013-09-20 07:31:00,34.7,23.0,29.96,West,260,0.0,0.0,62,0.00,,---,0.00,VWS V14.01,2013-09-20 13:31:00,
2013-09-20 07:36:00,34.7,23.4,29.96,West,262,0.0,0.0,63,0.00,,---,0.00,VWS V14.01,2013-09-20 13:36:00,
2013-09-20 07:41:00,34.5,22.9,29.96,West,262,0.0,0.0,62,0.00,,---,0.00,VWS V14.01,2013-09-20 13:41:00,
2013-09-20 07:46:00,34.5,23.2,29.96,West,262,0.0,0.0,63,0.00,,---,0.00,VWS V14.01,2013-09-20 13:46:00,
2013-09-20 07:51:00,35.1,23.8,29.96,West,262,0.0,0.0,63,0.00,,---,0.00,VWS V14.01,2013-09-20 13:51:00,
2013-09-20 07:56:00,35.8,24.4,29.96,West,262,0.0,0.0,63,0.00,,---,0.00,VWS V14.01,2013-09-20 13:56:00,
2013-09-20 08:01:00,36.3,25.3,29.96,West,262,0.0,0.0,64,0.00,,---,0.00,VWS V14.01,2013-09-20 14:01:00,
2013-09-20 08:06:00,37.9,26.9,29.96,West,262,0.0,0.0,64,0.00,,---,0.00,VWS V14.01,2013-09-20 14:06:00,
2013-09-20 08:11:00,39.6,28.4,29.96,West,262,0.0,0.0,64,0.00,,---,0.00,VWS V14.01,2013-09-20 14:11:00,
2013-09-20 08:16:00,41.5,30.3,29.96,West,262,0.0,0.0,64,0.00,,---,0.00,VWS V14.01,2013-09-20 14:16:00,
2013-09-20 08:21:00,42.6,30.1,29.96,West,262,0.0,0.0,61,0.00,,---,0.00,VWS V14.01,2013-09-20 14:21:00,
2013-09-20 08:26:00,44.2,31.2,29.96,West,262,0.0,0.0,60,0.00,,---,0.00,VWS V14.01,2013-09-20 14:26:00,
2013-09-20 08:31:00,46.0,33.0,29.96,West,262,0.0,0.0,60,0.00,,---,0.00,VWS V14.01,2013-09-20 14:31:00,
2013-09-20 08:36:00,47.1,33.1,29.96,WSW,239,0.0,0.0,58,0.00,,---,0.00,VWS V14.01,2013-09-20 14:36:00,
2013-09-20 08:41:00,48.2,33.7,29.96,WSW,239,0.0,0.0,57,0.00,,---,0.00,VWS V14.01,2013-09-20 14:41:00,
2013-09-20 08:46:00,49.3,34.3,29.96,WSW,239,0.0,0.0,56,0.00,,---,0.00,VWS V14.01,2013-09-20 14:46:00,
2013-09-20 08:51:00,50.4,34.4,29.96,WSW,239,0.0,0.0,54,0.00,,---,0.00,VWS V14.01,2013-09-20 14:51:00,
2013-09-20 08:56:00,51.6,35.1,29.96,WSW,239,0.0,0.0,53,0.00,,---,0.00,VWS V14.01,2013-09-20 14:56:00,
2013-09-20 09:01:00,52.7,34.6,29.96,WSW,239,0.0,0.0,50,0.00,,---,0.00,VWS V14.01,2013-09-20 15:01:00,
2013-09-20 09:06:00,53.4,34.8,29.96,ESE,111,0.0,0.0,49,0.00,,---,0.00,VWS V14.01,2013-09-20 15:06:00,
2013-09-20 09:11:00,54.0,29.6,29.96,ESE,103,0.0,0.0,39,0.00,,---,0.00,VWS V14.01,2013-09-20 15:11:00,
2013-09-20 09:16:00,53.8,28.1,29.96,ESE,103,0.0,0.0,37,0.00,,---,0.00,VWS V14.01,2013-09-20 15:16:00,
2013-09-20 09:21:00,54.5,28.8,29.93,East,86,2.7,2.7,37,0.00,,---,0.00,VWS V14.01,2013-09-20 15:21:00,
2013-09-20 09:26:00,55.0,29.3,29.93,East,100,2.2,3.6,37,0.00,,---,0.00,VWS V14.01,2013-09-20 15:26:00,
2013-09-20 09:31:00,55.0,26.5,29.93,NE,34,0.0,0.0,33,0.00,,---,0.00,VWS V14.01,2013-09-20 15:31:00,
2013-09-20 09:36:00,54.9,24.8,29.96,NNE,25,0.0,0.0,31,0.00,,---,0.00,VWS V14.01,2013-09-20 15:36:00,
2013-09-20 09:41:00,54.9,24.0,29.96,North,2,0.0,2.2,30,0.00,,---,0.00,VWS V14.01,2013-09-20 15:41:00,
2013-09-20 09:46:00,55.6,24.7,29.96,NNE,29,0.0,0.0,30,0.00,,---,0.00,VWS V14.01,2013-09-20 15:46:00,
2013-09-20 09:51:00,55.6,23.9,29.93,NNE,13,0.0,0.0,29,0.00,,---,0.00,VWS V14.01,2013-09-20 15:51:00,
2013-09-20 09:56:00,55.6,23.9,29.93,NNE,12,0.0,0.0,29,0.00,,---,0.00,VWS V14.01,2013-09-20 15:56:00,
2013-09-20 10:01:00,56.1,24.3,29.93,North,353,0.0,0.0,29,0.00,,---,0.00,VWS V14.01,2013-09-20 16:01:00,
2013-09-20 10:06:00,56.7,24.8,29.93,NNE,16,0.0,0.0,29,0.00,,---,0.00,VWS V14.01,2013-09-20 16:06:00,
2013-09-20 10:11:00,57.0,24.3,29.93,NNE,12,0.0,0.0,28,0.00,,---,0.00,VWS V14.01,2013-09-20 16:11:00,
2013-09-20 10:16:00,57.2,24.4,29.93,North,8,0.0,0.0,28,0.00,,---,0.00,VWS V14.01,2013-09-20 16:16:00,
2013-09-20 10:21:00,57.7,24.9,29.93,NNE,18,0.0,2.7,28,0.00,,---,0.00,VWS V14.01,2013-09-20 16:21:00,
2013-09-20 10:26:00,57.9,24.2,29.93,NNW,345,0.0,2.7,27,0.00,,---,0.00,VWS V14.01,2013-09-20 16:26:00,
2013-09-20 10:31:00,58.5,24.6,29.93,North,4,0.0,0.0,27,0.00,,---,0.00,VWS V14.01,2013-09-20 16:31:00,
2013-09-20 10:36:00,58.8,24.9,29.93,North,8,0.0,0.0,27,0.00,,---,0.00,VWS V14.01,2013-09-20 16:36:00,
2013-09-20 10:41:00,59.5,24.6,29.93,NNW,334,0.0,2.2,26,0.00,,---,0.00,VWS V14.01,2013-09-20 16:41:00,
2013-09-20 10:46:00,60.1,24.2,29.93,NNW,335,0.0,0.0,25,0.00,,---,0.00,VWS V14.01,2013-09-20 16:46:00,
2013-09-20 10:51:00,60.1,24.2,29.91,North,357,0.0,0.0,25,0.00,,---,0.00,VWS V14.01,2013-09-20 16:51:00,
2013-09-20 10:56:00,60.4,24.5,29.91,North,353,0.0,0.0,25,0.00,,---,0.00,VWS V14.01,2013-09-20 16:56:00,
2013-09-20 11:01:00,61.5,25.4,29.91,North,0,0.0,2.7,25,0.00,,---,0.00,VWS V14.01,2013-09-20 17:01:00,
2013-09-20 11:06:00,62.4,26.2,29.91,NE,56,0.0,4.0,25,0.00,,---,0.00,VWS V14.01,2013-09-20 17:06:00,
2013-09-20 11:11:00,63.3,25.9,29.91,North,5,3.1,4.0,24,0.00,,---,0.00,VWS V14.01,2013-09-20 17:11:00,
2013-09-20 11:16:00,63.7,26.2,29.91,NE,52,2.2,4.0,24,0.00,,---,0.00,VWS V14.01,2013-09-20 17:16:00,
2013-09-20 11:21:00,64.9,27.3,29.91,North,2,0.0,4.0,24,0.00,,---,0.00,VWS V14.01,2013-09-20 17:21:00,
2013-09-20 11:26:00,64.8,26.1,29.91,NNE,22,0.0,4.0,23,0.00,,---,0.00,VWS V14.01,2013-09-20 17:26:00,
2013-09-20 11:31:00,64.4,25.8,29.91,NNE,25,0.0,2.2,23,0.00,,---,0.00,VWS V14.01,2013-09-20 17:31:00,
2013-09-20 11:36:00,64.9,26.3,29.91,North,353,0.0,3.6,23,0.00,,---,0.00,VWS V14.01,2013-09-20 17:36:00,
2013-09-20 11:41:00,65.7,26.9,29.91,North,1,0.0,3.6,23,0.00,,---,0.00,VWS V14.01,2013-09-20 17:41:00,
2013-09-20 11:46:00,65.8,27.0,29.91,East,80,2.7,3.6,23,0.00,,---,0.00,VWS V14.01,2013-09-20 17:46:00,
2013-09-20 11:51:00,66.4,27.5,29.88,NE,34,0.0,4.0,23,0.00,,---,0.00,VWS V14.01,2013-09-20 17:51:00,
2013-09-20 11:56:00,66.9,27.9,29.88,SE,125,2.7,4.0,23,0.00,,---,0.00,VWS V14.01,2013-09-20 17:56:00,
2013-09-20 12:01:00,67.8,28.7,29.88,NE,34,2.2,2.2,23,0.00,,---,0.00,VWS V14.01,2013-09-20 18:01:00,
2013-09-20 12:06:00,68.0,27.8,29.88,NE,37,2.7,3.6,22,0.00,,---,0.00,VWS V14.01,2013-09-20 18:06:00,
2013-09-20 12:11:00,68.7,28.4,29.88,ENE,62,3.1,4.5,22,0.00,,---,0.00,VWS V14.01,2013-09-20 18:11:00,
2013-09-20 12:16:00,68.2,27.9,29.88,NNE,19,0.0,3.1,22,0.00,,---,0.00,VWS V14.01,2013-09-20 18:16:00,
2013-09-20 12:21:00,69.1,28.7,29.88,NE,36,2.7,3.1,22,0.00,,---,0.00,VWS V14.01,2013-09-20 18:21:00,
2013-09-20 12:26:00,69.4,29.0,29.88,NNE,12,0.0,3.1,22,0.00,,---,0.00,VWS V14.01,2013-09-20 18:26:00,
2013-09-20 12:31:00,69.3,28.8,29.88,NE,44,0.0,2.7,22,0.00,,---,0.00,VWS V14.01,2013-09-20 18:31:00,
2013-09-20 12:36:00,70.0,29.4,29.85,NNE,28,0.0,2.7,22,0.00,,---,0.00,VWS V14.01,2013-09-20 18:36:00,
2013-09-20 12:41:00,70.2,29.6,29.85,NE,41,2.7,2.7,22,0.00,,---,0.00,VWS V14.01,2013-09-20 18:41:00,
2013-09-20 12:46:00,70.5,26.3,29.85,NE,35,0.0,0.0,19,0.00,,---,0.00,VWS V14.01,2013-09-20 18:46:00,
2013-09-20 12:51:00,70.7,26.5,29.85,NNE,17,0.0,3.1,19,0.00,,---,0.00,VWS V14.01,2013-09-20 18:51:00,
2013-09-20 12:56:00,70.5,26.3,29.85,North,353,0.0,3.1,19,0.00,,---,0.00,VWS V14.01,2013-09-20 18:56:00,
2013-09-20 13:01:00,71.1,26.8,29.85,NE,55,3.6,3.6,19,0.00,,---,0.00,VWS V14.01,2013-09-20 19:01:00,
2013-09-20 13:06:00,72.5,27.9,29.85,NNW,330,2.2,4.0,19,0.00,,---,0.00,VWS V14.01,2013-09-20 19:06:00,
2013-09-20 13:11:00,72.9,28.2,29.85,North,353,0.0,4.0,19,0.00,,---,0.00,VWS V14.01,2013-09-20 19:11:00,
2013-09-20 13:16:00,73.6,27.5,29.85,NE,55,3.1,4.0,18,0.00,,---,0.00,VWS V14.01,2013-09-20 19:16:00,
2013-09-20 13:21:00,74.7,28.4,29.85,NE,39,0.0,4.0,18,0.00,,---,0.00,VWS V14.01,2013-09-20 19:21:00,
2013-09-20 13:26:00,74.3,28.1,29.85,North,353,3.1,4.0,18,0.00,,---,0.00,VWS V14.01,2013-09-20 19:26:00,
2013-09-20 13:31:00,74.8,28.5,29.85,NNW,334,2.2,2.2,18,0.00,,---,0.00,VWS V14.01,2013-09-20 19:31:00,
2013-09-20 13:36:00,75.7,24.9,29.82,NE,55,0.0,2.2,15,0.00,,---,0.00,VWS V14.01,2013-09-20 19:36:00,
2013-09-20 13:41:00,75.9,25.0,29.82,North,4,0.0,2.2,15,0.00,,---,0.00,VWS V14.01,2013-09-20 19:41:00,
2013-09-20 13:46:00,76.1,25.1,29.82,North,0,0.0,0.0,15,0.00,,---,0.00,VWS V14.01,2013-09-20 19:46:00,
2013-09-20 13:51:00,76.8,25.7,29.82,NNE,12,0.0,0.0,15,0.00,,---,0.00,VWS V14.01,2013-09-20 19:51:00,
2013-09-20 13:56:00,77.4,26.1,29.82,NE,52,0.0,2.2,15,0.00,,---,0.00,VWS V14.01,2013-09-20 19:56:00,
2013-09-20 14:01:00,78.8,27.3,29.82,ENE,57,2.7,4.0,15,0.00,,---,0.00,VWS V14.01,2013-09-20 20:01:00,
2013-09-20 14:06:00,79.5,27.9,29.82,North,357,0.0,4.0,15,0.00,,---,0.00,VWS V14.01,2013-09-20 20:06:00,
2013-09-20 14:11:00,79.2,27.6,29.82,North,353,0.0,4.0,15,0.00,,---,0.00,VWS V14.01,2013-09-20 20:11:00,
2013-09-20 14:16:00,79.2,27.6,29.82,ENE,58,0.0,0.0,15,0.00,,---,0.00,VWS V14.01,2013-09-20 20:16:00,
2013-09-20 14:21:00,80.1,28.3,29.79,North,357,0.0,4.0,15,0.00,,---,0.00,VWS V14.01,2013-09-20 20:21:00,
2013-09-20 14:26:00,80.8,27.2,29.79,NNE,19,2.2,4.0,14,0.00,,---,0.00,VWS V14.01,2013-09-20 20:26:00,
2013-09-20 14:31:00,81.0,27.3,29.79,NE,34,0.0,2.7,14,0.00,,---,0.00,VWS V14.01,2013-09-20 20:31:00,
2013-09-20 14:36:00,80.8,27.2,29.79,NE,50,2.7,2.7,14,0.00,,---,0.00,VWS V14.01,2013-09-20 20:36:00,
2013-09-20 14:41:00,80.2,28.4,29.79,NNW,341,0.0,3.1,15,0.00,,---,0.00,VWS V14.01,2013-09-20 20:41:00,
2013-09-20 14:46:00,80.2,28.4,29.79,North,353,3.1,3.1,15,0.00,,---,0.00,VWS V14.01,2013-09-20 20:46:00,
2013-09-20 14:51:00,80.8,27.2,29.79,North,4,0.0,3.1,14,0.00,,---,0.00,VWS V14.01,2013-09-20 20:51:00,
2013-09-20 14:56:00,81.0,27.3,29.79,NNE,19,0.0,3.1,14,0.00,,---,0.00,VWS V14.01,2013-09-20 20:56:00,
2013-09-20 15:01:00,82.0,28.2,29.79,NNE,17,0.0,0.0,14,0.00,,---,0.00,VWS V14.01,2013-09-20 21:01:00,
2013-09-20 15:06:00,82.2,28.3,29.79,North,0,2.2,2.7,14,0.00,,---,0.00,VWS V14.01,2013-09-20 21:06:00,
2013-09-20 15:11:00,83.7,29.5,29.79,North,3,0.0,2.7,14,0.00,,---,0.00,VWS V14.01,2013-09-20 21:11:00,
2013-09-20 15:16:00,83.5,29.3,29.79,NNW,346,0.0,2.7,14,0.00,,---,0.00,VWS V14.01,2013-09-20 21:16:00,
2013-09-20 15:21:00,83.8,29.6,29.79,North,9,3.6,3.6,14,0.00,,---,0.00,VWS V14.01,2013-09-20 21:21:00,
2013-09-20 15:26:00,83.3,29.2,29.76,North,0,0.0,3.6,14,0.00,,---,0.00,VWS V14.01,2013-09-20 21:26:00,
2013-09-20 15:31:00,83.8,29.6,29.76,North,8,0.0,0.0,14,0.00,,---,0.00,VWS V14.01,2013-09-20 21:31:00,
2013-09-20 15:36:00,83.8,29.6,29.76,North,0,0.0,0.0,14,0.00,,---,0.00,VWS V14.01,2013-09-20 21:36:00,
2013-09-20 15:41:00,83.3,29.2,29.76,North,0,0.0,3.1,14,0.00,,---,0.00,VWS V14.01,2013-09-20 21:41:00,
2013-09-20 15:46:00,84.2,28.1,29.76,NE,45,0.0,0.0,13,0.00,,---,0.00,VWS V14.01,2013-09-20 21:46:00,
2013-09-20 15:51:00,84.9,28.6,29.76,ESE,115,4.0,6.3,13,0.00,,---,0.00,VWS V14.01,2013-09-20 21:51:00,
2013-09-20 15:56:00,85.8,29.4,29.76,NE,45,2.7,7.6,13,0.00,,---,0.00,VWS V14.01,2013-09-20 21:56:00,
2013-09-20 16:01:00,85.6,29.2,29.76,ESE,111,3.1,8.1,13,0.00,,---,0.00,VWS V14.01,2013-09-20 22:01:00,
2013-09-20 16:06:00,85.8,29.4,29.76,SE,144,5.4,8.1,13,0.00,,---,0.00,VWS V14.01,2013-09-20 22:06:00,
2013-09-20 16:11:00,86.9,30.2,29.76,ESE,122,3.1,8.1,13,0.00,,---,0.00,VWS V14.01,2013-09-20 22:11:00,
2013-09-20 16:16:00,87.1,30.3,29.76,SE,138,3.6,6.3,13,0.00,,---,0.00,VWS V14.01,2013-09-20 22:16:00,
2013-09-20 16:21:00,86.7,30.0,29.76,East,96,3.6,6.3,13,0.00,,---,0.00,VWS V14.01,2013-09-20 22:21:00,
2013-09-20 16:26:00,87.1,30.3,29.76,ESE,113,3.6,6.3,13,0.00,,---,0.00,VWS V14.01,2013-09-20 22:26:00,
2013-09-20 16:31:00,86.4,29.8,29.76,SE,136,3.6,4.9,13,0.00,,---,0.00,VWS V14.01,2013-09-20 22:31:00,
2013-09-20 16:36:00,85.6,29.2,29.73,East,100,3.1,4.9,13,0.00,,---,0.00,VWS V14.01,2013-09-20 22:36:00,
2013-09-20 16:41:00,85.8,29.4,29.73,ESE,112,0.0,4.9,13,0.00,,---,0.00,VWS V14.01,2013-09-20 22:41:00,
2013-09-20 16:46:00,86.5,29.9,29.73,SE,130,0.0,0.0,13,0.00,,---,0.00,VWS V14.01,2013-09-20 22:46:00,
2013-09-20 16:51:00,86.9,30.2,29.73,SE,127,0.0,3.1,13,0.00,,---,0.00,VWS V14.01,2013-09-20 22:51:00,
2013-09-20 16:56:00,86.5,29.9,29.73,ENE,70,2.2,4.9,13,0.00,,---,0.00,VWS V14.01,2013-09-20 22:56:00,
2013-09-20 17:01:00,86.2,29.6,29.73,East,89,3.1,3.6,13,0.00,,---,0.00,VWS V14.01,2013-09-20 23:01:00,
2013-09-20 17:06:00,86.2,29.6,29.73,ESE,108,2.7,5.4,13,0.00,,---,0.00,VWS V14.01,2013-09-20 23:06:00,
2013-09-20 17:11:00,86.0,29.5,29.73,East,84,0.0,5.4,13,0.00,,---,0.00,VWS V14.01,2013-09-20 23:11:00,
2013-09-20 17:16:00,86.0,29.5,29.73,NNE,18,0.0,0.0,13,0.00,,---,0.00,VWS V14.01,2013-09-20 23:16:00,
2013-09-20 17:21:00,85.1,28.8,29.73,East,98,3.1,3.1,13,0.00,,---,0.00,VWS V14.01,2013-09-20 23:21:00,
2013-09-20 17:26:00,85.5,29.1,29.73,East,90,0.0,3.6,13,0.00,,---,0.00,VWS V14.01,2013-09-20 23:26:00,
2013-09-20 17:31:00,85.3,28.9,29.73,NE,55,0.0,0.0,13,0.00,,---,0.00,VWS V14.01,2013-09-20 23:31:00,
2013-09-20 17:36:00,85.1,28.8,29.73,NE,40,0.0,3.1,13,0.00,,---,0.00,VWS V14.01,2013-09-20 23:36:00,
2013-09-20 17:41:00,83.8,29.6,29.73,NNE,29,0.0,3.1,14,0.00,,---,0.00,VWS V14.01,2013-09-20 23:41:00,
2013-09-20 17:46:00,83.3,29.2,29.73,North,357,0.0,0.0,14,0.00,,---,0.00,VWS V14.01,2013-09-20 23:46:00,
2013-09-20 17:51:00,83.7,29.5,29.73,ENE,70,0.0,0.0,14,0.00,,---,0.00,VWS V14.01,2013-09-20 23:51:00,
2013-09-20 17:56:00,83.3,29.2,29.73,ENE,70,0.0,0.0,14,0.00,,---,0.00,VWS V14.01,2013-09-20 23:56:00,
2013-09-20 18:01:00,82.2,24.6,29.73,ENE,61,0.0,0.0,12,0.00,,---,0.00,VWS V14.01,2013-09-21 00:01:00,
2013-09-20 18:06:00,80.4,23.2,29.73,NNE,22,0.0,0.0,12,0.00,,---,0.00,VWS V14.01,2013-09-21 00:06:00,
2013-09-20 18:11:00,79.2,22.2,29.73,NNW,340,0.0,2.2,12,0.00,,---,0.00,VWS V14.01,2013-09-21 00:11:00,
2013-09-20 18:16:00,78.3,23.4,29.73,North,0,0.0,0.0,13,0.00,,---,0.00,VWS V14.01,2013-09-21 00:16:00,
2013-09-20 18:21:00,77.4,22.7,29.73,North,353,0.0,0.0,13,0.00,,---,0.00,VWS V14.01,2013-09-21 00:21:00,
2013-09-20 18:26:00,76.6,22.1,29.73,North,353,0.0,0.0,13,0.00,,---,0.00,VWS V14.01,2013-09-21 00:26:00,
2013-09-20 18:31:00,75.9,25.0,29.73,NW,317,0.0,0.0,15,0.00,,---,0.00,VWS V14.01,2013-09-21 00:31:00,
2013-09-20 18:36:00,75.4,21.2,29.73,NW,317,0.0,0.0,13,0.00,,---,0.00,VWS V14.01,2013-09-21 00:36:00,
2013-09-20 18:41:00,74.8,20.7,29.70,NW,317,0.0,0.0,13,0.00,,---,0.00,VWS V14.01,2013-09-21 00:41:00,
2013-09-20 18:46:00,73.8,19.9,29.70,NW,317,0.0,0.0,13,0.00,,---,0.00,VWS V14.01,2013-09-21 00:46:00,
2013-09-20 18:51:00,72.5,23.8,29.70,WNW,282,0.0,0.0,16,0.00,,---,0.00,VWS V14.01,2013-09-21 00:51:00,
2013-09-20 18:56:00,71.2,19.6,29.70,WSW,251,2.2,3.6,14,0.00,,---,0.00,VWS V14.01,2013-09-21 00:56:00,
2013-09-20 19:01:00,70.2,18.8,29.70,West,262,0.0,0.0,14,0.00,,---,0.00,VWS V14.01,2013-09-21 01:01:00,
2013-09-20 19:06:00,68.9,22.3,29.70,WSW,240,0.0,0.0,17,0.00,,---,0.00,VWS V14.01,2013-09-21 01:06:00,
2013-09-20 19:11:00,68.0,21.6,29.70,West,261,0.0,3.1,17,0.00,,---,0.00,VWS V14.01,2013-09-21 01:11:00,
2013-09-20 19:15:00,67.1,20.9,29.70,WNW,285,4.0,4.0,17,0.00,,---,0.00,VWS V14.01,2013-09-21 01:15:00,
2013-09-20 19:20:00,66.4,20.3,29.70,West,271,0.0,4.0,17,0.00,,---,0.00,VWS V14.01,2013-09-21 01:20:00,
2013-09-20 19:26:00,65.8,21.2,29.70,SSW,207,0.0,4.0,18,0.00,,---,0.00,VWS V14.01,2013-09-21 01:26:00,
2013-09-20 19:30:00,64.2,19.9,29.70,South,184,3.1,3.6,18,0.00,,---,0.00,VWS V14.01,2013-09-21 01:30:00,
2013-09-20 19:35:00,63.5,19.3,29.70,SSW,192,2.2,3.6,18,0.00,,---,0.00,VWS V14.01,2013-09-21 01:35:00,
2013-09-20 19:40:00,62.8,18.7,29.70,SSW,197,0.0,3.6,18,0.00,,---,0.00,VWS V14.01,2013-09-21 01:40:00,
2013-09-20 19:45:00,62.4,19.6,29.70,SSW,197,0.0,0.0,19,0.00,,---,0.00,VWS V14.01,2013-09-21 01:45:00,
2013-09-20 19:50:00,61.7,19.0,29.70,SSW,197,0.0,0.0,19,0.00,,---,0.00,VWS V14.01,2013-09-21 01:50:00,
2013-09-20 19:55:00,60.6,18.2,29.70,SSW,197,0.0,0.0,19,0.00,,---,0.00,VWS V14.01,2013-09-21 01:55:00,
2013-09-20 20:00:00,59.7,17.4,29.70,SSW,199,3.1,3.6,19,0.00,,---,0.00,VWS V14.01,2013-09-21 02:00:00,
2013-09-20 20:05:00,59.4,20.5,29.70,SSW,201,0.0,3.6,22,0.00,,---,0.00,VWS V14.01,2013-09-21 02:05:00,
2013-09-20 20:10:00,58.8,20.1,29.70,WSW,245,0.0,3.6,22,0.00,,---,0.00,VWS V14.01,2013-09-21 02:10:00,
2013-09-20 20:15:00,58.5,19.8,29.70,West,274,0.0,0.0,22,0.00,,---,0.00,VWS V14.01,2013-09-21 02:15:00,
2013-09-20 20:20:00,58.8,20.1,29.70,SSW,195,0.0,0.0,22,0.00,,---,0.00,VWS V14.01,2013-09-21 02:20:00,
2013-09-20 20:25:00,58.8,20.1,29.70,WSW,252,3.1,4.0,22,0.00,,---,0.00,VWS V14.01,2013-09-21 02:25:00,
2013-09-20 20:30:00,58.6,19.9,29.70,WSW,248,0.0,0.0,22,0.00,,---,0.00,VWS V14.01,2013-09-21 02:30:00,
2013-09-20 20:35:00,58.1,19.5,29.70,SSW,193,0.0,0.0,22,0.00,,---,0.00,VWS V14.01,2013-09-21 02:35:00,
2013-09-20 20:40:00,57.0,21.6,29.70,SW,223,3.6,4.5,25,0.00,,---,0.00,VWS V14.01,2013-09-21 02:40:00,
2013-09-20 20:45:00,56.5,21.1,29.70,South,184,2.2,2.7,25,0.00,,---,0.00,VWS V14.01,2013-09-21 02:45:00,
2013-09-20 20:50:00,55.0,20.8,29.70,SSE,152,0.0,3.6,26,0.00,,---,0.00,VWS V14.01,2013-09-21 02:50:00,
2013-09-20 20:55:00,53.8,19.7,29.73,SSE,154,0.0,3.6,26,0.00,,---,0.00,VWS V14.01,2013-09-21 02:55:00,
2013-09-20 21:00:00,53.2,20.1,29.73,SSW,208,0.0,0.0,27,0.00,,---,0.00,VWS V14.01,2013-09-21 03:00:00,
2013-09-20 21:05:00,53.1,20.0,29.73,SSW,208,0.0,0.0,27,0.00,,---,0.00,VWS V14.01,2013-09-21 03:05:00,
2013-09-20 21:10:00,53.1,20.0,29.73,SSW,208,0.0,0.0,27,0.00,,---,0.00,VWS V14.01,2013-09-21 03:10:00,
2013-09-20 21:15:00,53.1,20.0,29.73,SSW,208,0.0,0.0,27,0.00,,---,0.00,VWS V14.01,2013-09-21 03:15:00,
2013-09-20 21:20:00,53.1,20.0,29.73,SSW,208,0.0,0.0,27,0.00,,---,0.00,VWS V14.01,2013-09-21 03:20:00,
2013-09-20 21:25:00,53.2,20.1,29.70,SSW,208,0.0,0.0,27,0.00,,---,0.00,VWS V14.01,2013-09-21 03:25:00,
2013-09-20 21:30:00,53.2,20.1,29.70,SSW,208,0.0,0.0,27,0.00,,---,0.00,VWS V14.01,2013-09-21 03:30:00,
2013-09-20 21:35:00,53.1,20.8,29.70,SSW,208,0.0,0.0,28,0.00,,---,0.00,VWS V14.01,2013-09-21 03:35:00,
2013-09-20 21:40:00,52.7,20.5,29.70,South,183,0.0,0.0,28,0.00,,---,0.00,VWS V14.01,2013-09-21 03:40:00,
2013-09-20 21:45:00,52.3,20.2,29.70,SSW,192,0.0,0.0,28,0.00,,---,0.00,VWS V14.01,2013-09-21 03:45:00,
2013-09-20 21:50:00,51.4,20.3,29.73,SSE,162,3.6,3.6,29,0.00,,---,0.00,VWS V14.01,2013-09-21 03:50:00,
2013-09-20 21:55:00,50.7,20.4,29.73,South,173,3.1,3.6,30,0.00,,---,0.00,VWS V14.01,2013-09-21 03:55:00,
2013-09-20 22:00:00,50.7,20.4,29.73,South,180,0.0,0.0,30,0.00,,---,0.00,VWS V14.01,2013-09-21 04:00:00,
2013-09-20 22:01:00,50.7,20.4,29.73,South,183,0.0,0.0,30,0.00,,---,0.00,VWS V14.01,2013-09-21 04:01:00,
2013-09-20 22:06:00,50.7,20.4,29.73,South,183,0.0,0.0,30,0.00,,---,0.00,VWS V14.01,2013-09-21 04:06:00,
2013-09-20 22:11:00,50.2,20.0,29.73,South,183,0.0,0.0,30,0.00,,---,0.00,VWS V14.01,2013-09-21 04:11:00,
2013-09-20 22:17:00,49.6,20.3,29.73,South,183,0.0,0.0,31,0.00,,---,0.00,VWS V14.01,2013-09-21 04:17:00,
2013-09-20 22:22:00,49.6,20.3,29.73,South,182,0.0,0.0,31,0.00,,---,0.00,VWS V14.01,2013-09-21 04:22:00,
2013-09-20 22:27:00,49.5,20.9,29.73,South,183,0.0,0.0,32,0.00,,---,0.00,VWS V14.01,2013-09-21 04:27:00,
2013-09-20 22:32:00,49.1,20.5,29.73,SSW,206,0.0,0.0,32,0.00,,---,0.00,VWS V14.01,2013-09-21 04:32:00,
2013-09-20 22:37:00,49.1,20.5,29.70,SSW,206,0.0,0.0,32,0.00,,---,0.00,VWS V14.01,2013-09-21 04:37:00,
2013-09-20 22:42:00,49.3,20.7,29.70,SW,235,0.0,0.0,32,0.00,,---,0.00,VWS V14.01,2013-09-21 04:42:00,
2013-09-20 22:47:00,49.1,20.5,29.70,SE,140,0.0,2.7,32,0.00,,---,0.00,VWS V14.01,2013-09-21 04:47:00,
2013-09-20 22:52:00,48.2,19.7,29.73,SE,142,0.0,2.7,32,0.00,,---,0.00,VWS V14.01,2013-09-21 04:52:00,
2013-09-20 22:57:00,47.7,20.7,29.73,WSW,250,0.0,2.7,34,0.00,,---,0.00,VWS V14.01,2013-09-21 04:57:00,
2013-09-20 23:02:00,47.5,20.5,29.73,WSW,250,0.0,0.0,34,0.00,,---,0.00,VWS V14.01,2013-09-21 05:02:00,
2013-09-20 23:07:00,47.3,20.4,29.73,WSW,250,0.0,0.0,34,0.00,,---,0.00,VWS V14.01,2013-09-21 05:07:00,
2013-09-20 23:12:00,47.3,21.7,29.73,WSW,250,0.0,0.0,36,0.00,,---,0.00,VWS V14.01,2013-09-21 05:12:00,
2013-09-20 23:17:00,47.3,22.4,29.73,WSW,256,0.0,0.0,37,0.00,,---,0.00,VWS V14.01,2013-09-21 05:17:00,
2013-09-20 23:22:00,47.5,22.5,29.73,West,261,0.0,0.0,37,0.00,,---,0.00,VWS V14.01,2013-09-21 05:22:00,
2013-09-20 23:27:00,47.8,22.9,29.73,West,266,3.6,3.6,37,0.00,,---,0.00,VWS V14.01,2013-09-21 05:27:00,
2013-09-20 23:32:00,48.2,22.5,29.73,West,266,0.0,0.0,36,0.00,,---,0.00,VWS V14.01,2013-09-21 05:32:00,
2013-09-20 23:37:00,48.2,22.5,29.73,West,266,0.0,0.0,36,0.00,,---,0.00,VWS V14.01,2013-09-21 05:37:00,
2013-09-20 23:42:00,48.2,22.5,29.73,West,266,0.0,0.0,36,0.00,,---,0.00,VWS V14.01,2013-09-21 05:42:00,
2013-09-20 23:47:00,48.0,23.0,29.73,West,266,0.0,0.0,37,0.00,,---,0.00,VWS V14.01,2013-09-21 05:47:00,
2013-09-20 23:52:00,47.7,22.7,29.73,West,266,0.0,0.0,37,0.00,,---,0.00,VWS V14.01,2013-09-21 05:52:00,
2013-09-20 23:57:00,47.5,22.5,29.73,West,266,0.0,0.0,37,0.00,,---,0.00,VWS V14.01,2013-09-21 05:57:00,